sensor_id;sensor_type;location;lat;lon;timestamp;P1;durP1;ratioP1;P2;durP2;ratioP2
62056;SDS011;48016;50.284;18.860;2022-12-18T09:52:35;49.80;;;19.40;;
62056;SDS011;48016;50.284;18.860;2022-12-18T09:57:47;58.10;;;20.70;;
62056;SDS011;48016;50.284;18.860;2022-12-18T10:00:22;60.60;;;20.40;;
62056;SDS011;48016;50.284;18.860;2022-12-18T10:02:52;58.50;;;21.80;;
62056;SDS011;48016;50.284;18.860;2022-12-18T10:05:37;58.50;;;22.50;;
62056;SDS011;48016;50.284;18.860;2022-12-18T10:11:32;54.60;;;23.00;;
62056;SDS011;48016;50.284;18.860;2022-12-18T10:19:47;56.70;;;23.10;;
62056;SDS011;48016;50.284;18.860;2022-12-18T10:27:52;61.00;;;24.40;;
62056;SDS011;48016;50.284;18.860;2022-12-18T10:30:23;51.90;;;22.70;;
62056;SDS011;48016;50.284;18.860;2022-12-18T10:32:51;53.70;;;23.90;;
62056;SDS011;48016;50.284;18.860;2022-12-18T10:35:21;53.50;;;22.40;;
62056;SDS011;48016;50.284;18.860;2022-12-18T10:43:27;55.40;;;20.20;;
62056;SDS011;48016;50.284;18.860;2022-12-18T10:51:21;50.90;;;21.40;;
62056;SDS011;48016;50.284;18.860;2022-12-18T10:54:04;56.50;;;22.20;;
62056;SDS011;48016;50.284;18.860;2022-12-18T10:56:33;56.50;;;22.00;;
62056;SDS011;48016;50.284;18.860;2022-12-18T11:04:16;58.80;;;23.40;;
62056;SDS011;48016;50.284;18.860;2022-12-18T11:06:52;58.50;;;24.50;;
62056;SDS011;48016;50.284;18.860;2022-12-18T11:09:23;56.50;;;22.40;;
62056;SDS011;48016;50.284;18.860;2022-12-18T11:11:55;45.80;;;18.00;;
62056;SDS011;48016;50.284;18.860;2022-12-18T11:17:19;46.90;;;17.30;;
62056;SDS011;48016;50.284;18.860;2022-12-18T11:19:57;44.20;;;18.30;;
62056;SDS011;48016;50.284;18.860;2022-12-18T11:22:29;50.10;;;19.30;;
62056;SDS011;48016;50.284;18.860;2022-12-18T11:25:01;52.90;;;21.30;;
62056;SDS011;48016;50.284;18.860;2022-12-18T11:27:32;50.60;;;20.90;;
62056;SDS011;48016;50.284;18.860;2022-12-18T11:30:21;61.40;;;22.40;;
62056;SDS011;48016;50.284;18.860;2022-12-18T11:33:10;50.00;;;20.30;;
62056;SDS011;48016;50.284;18.860;2022-12-18T11:35:51;55.80;;;23.20;;
62056;SDS011;48016;50.284;18.860;2022-12-18T11:38:25;55.20;;;21.40;;
62056;SDS011;48016;50.284;18.860;2022-12-18T11:43:55;61.90;;;25.10;;
62056;SDS011;48016;50.284;18.860;2022-12-18T11:46:38;57.50;;;24.30;;
62056;SDS011;48016;50.284;18.860;2022-12-18T11:49:22;57.10;;;23.70;;
62056;SDS011;48016;50.284;18.860;2022-12-18T11:51:58;61.70;;;22.70;;
62056;SDS011;48016;50.284;18.860;2022-12-18T11:54:29;53.80;;;24.00;;
62056;SDS011;48016;50.284;18.860;2022-12-18T12:02:36;51.60;;;21.90;;
62056;SDS011;48016;50.284;18.860;2022-12-18T12:05:24;47.00;;;19.50;;
62056;SDS011;48016;50.284;18.860;2022-12-18T12:08:02;43.70;;;19.30;;
62056;SDS011;48016;50.284;18.860;2022-12-18T12:16:49;43.80;;;16.80;;
62056;SDS011;48016;50.284;18.860;2022-12-18T12:19:38;40.60;;;17.20;;
62056;SDS011;48016;50.284;18.860;2022-12-18T12:33:34;51.50;;;18.90;;
62056;SDS011;48016;50.284;18.860;2022-12-18T12:36:23;43.30;;;15.70;;
62056;SDS011;48016;50.284;18.860;2022-12-18T12:39:17;46.40;;;17.50;;
62056;SDS011;48016;50.284;18.860;2022-12-18T12:41:47;48.00;;;20.00;;
62056;SDS011;48016;50.284;18.860;2022-12-18T12:44:35;53.30;;;20.80;;
62056;SDS011;48016;50.284;18.860;2022-12-18T12:47:16;53.10;;;20.40;;
62056;SDS011;48016;50.284;18.860;2022-12-18T12:49:50;48.30;;;21.30;;
62056;SDS011;48016;50.284;18.860;2022-12-18T12:54:56;44.70;;;20.00;;
62056;SDS011;48016;50.284;18.860;2022-12-18T13:05:16;44.80;;;17.60;;
62056;SDS011;48016;50.284;18.860;2022-12-18T13:08:10;44.30;;;17.00;;
62056;SDS011;48016;50.284;18.860;2022-12-18T13:10:58;44.40;;;16.50;;
62056;SDS011;48016;50.284;18.860;2022-12-18T13:14:02;47.50;;;18.30;;
62056;SDS011;48016;50.284;18.860;2022-12-18T13:16:29;44.10;;;17.30;;
62056;SDS011;48016;50.284;18.860;2022-12-18T13:18:56;47.80;;;18.30;;
62056;SDS011;48016;50.284;18.860;2022-12-18T13:21:28;49.30;;;19.40;;
62056;SDS011;48016;50.284;18.860;2022-12-18T13:23:57;50.50;;;19.20;;
62056;SDS011;48016;50.284;18.860;2022-12-18T13:26:41;50.60;;;19.50;;
62056;SDS011;48016;50.284;18.860;2022-12-18T13:29:08;49.40;;;18.90;;
62056;SDS011;48016;50.284;18.860;2022-12-18T13:34:28;48.40;;;18.90;;
62056;SDS011;48016;50.284;18.860;2022-12-18T13:39:59;44.40;;;17.40;;
62056;SDS011;48016;50.284;18.860;2022-12-18T13:48:36;45.50;;;19.10;;
62056;SDS011;48016;50.284;18.860;2022-12-18T13:51:08;50.30;;;19.80;;
62056;SDS011;48016;50.284;18.860;2022-12-18T13:53:48;53.80;;;21.30;;
62056;SDS011;48016;50.284;18.860;2022-12-18T13:56:18;48.50;;;20.50;;
62056;SDS011;48016;50.284;18.860;2022-12-18T14:04:20;52.30;;;20.80;;
62056;SDS011;48016;50.284;18.860;2022-12-18T14:06:50;51.90;;;21.00;;
62056;SDS011;48016;50.284;18.860;2022-12-18T14:09:21;55.20;;;22.30;;
62056;SDS011;48016;50.284;18.860;2022-12-18T14:11:51;55.70;;;21.90;;
62056;SDS011;48016;50.284;18.860;2022-12-18T14:14:46;50.90;;;20.90;;
62056;SDS011;48016;50.284;18.860;2022-12-18T14:17:16;58.30;;;21.60;;
62056;SDS011;48016;50.284;18.860;2022-12-18T14:19:47;48.40;;;18.30;;
62056;SDS011;48016;50.284;18.860;2022-12-18T14:22:20;48.30;;;19.20;;
62056;SDS011;48016;50.284;18.860;2022-12-18T14:27:43;45.00;;;16.50;;
62056;SDS011;48016;50.284;18.860;2022-12-18T14:30:29;54.70;;;18.50;;
62056;SDS011;48016;50.284;18.860;2022-12-18T14:35:28;64.80;;;24.90;;
62056;SDS011;48016;50.284;18.860;2022-12-18T14:38:09;54.30;;;22.50;;
62056;SDS011;48016;50.284;18.860;2022-12-18T14:43:23;67.90;;;25.40;;
62056;SDS011;48016;50.284;18.860;2022-12-18T14:45:50;66.10;;;25.20;;
62056;SDS011;48016;50.284;18.860;2022-12-18T14:48:22;68.70;;;25.00;;
62056;SDS011;48016;50.284;18.860;2022-12-18T14:50:56;74.20;;;27.90;;
62056;SDS011;48016;50.284;18.860;2022-12-18T14:53:42;71.10;;;28.50;;
62056;SDS011;48016;50.284;18.860;2022-12-18T14:56:18;72.10;;;28.90;;
62056;SDS011;48016;50.284;18.860;2022-12-18T14:58:48;72.40;;;29.30;;
62056;SDS011;48016;50.284;18.860;2022-12-18T15:01:28;70.70;;;27.50;;
62056;SDS011;48016;50.284;18.860;2022-12-18T15:03:55;76.30;;;29.30;;
62056;SDS011;48016;50.284;18.860;2022-12-18T15:09:05;88.40;;;36.30;;
62056;SDS011;48016;50.284;18.860;2022-12-18T15:11:49;87.80;;;34.80;;
62056;SDS011;48016;50.284;18.860;2022-12-18T15:14:21;80.70;;;31.40;;
62056;SDS011;48016;50.284;18.860;2022-12-18T15:16:58;78.60;;;33.80;;
62056;SDS011;48016;50.284;18.860;2022-12-18T15:22:17;77.90;;;31.40;;
62056;SDS011;48016;50.284;18.860;2022-12-18T15:24:47;78.70;;;29.00;;
62056;SDS011;48016;50.284;18.860;2022-12-18T15:27:21;88.30;;;34.00;;
62056;SDS011;48016;50.284;18.860;2022-12-18T15:30:00;98.50;;;37.30;;
62056;SDS011;48016;50.284;18.860;2022-12-18T15:32:34;107.50;;;38.40;;
62056;SDS011;48016;50.284;18.860;2022-12-18T15:37:35;95.30;;;34.50;;
62056;SDS011;48016;50.284;18.860;2022-12-18T15:40:01;90.20;;;30.80;;
62056;SDS011;48016;50.284;18.860;2022-12-18T15:42:29;85.20;;;32.80;;
62056;SDS011;48016;50.284;18.860;2022-12-18T15:45:14;79.40;;;29.50;;
62056;SDS011;48016;50.284;18.860;2022-12-18T15:47:41;71.50;;;25.30;;
62056;SDS011;48016;50.284;18.860;2022-12-18T15:50:10;69.00;;;24.80;;
62056;SDS011;48016;50.284;18.860;2022-12-18T15:52:44;67.30;;;24.00;;
62056;SDS011;48016;50.284;18.860;2022-12-18T15:55:13;64.10;;;26.70;;
62056;SDS011;48016;50.284;18.860;2022-12-18T15:58:00;77.30;;;27.60;;
62056;SDS011;48016;50.284;18.860;2022-12-18T16:00:26;62.10;;;24.50;;
62056;SDS011;48016;50.284;18.860;2022-12-18T16:02:53;68.50;;;26.20;;
62056;SDS011;48016;50.284;18.860;2022-12-18T16:05:20;68.40;;;27.40;;
62056;SDS011;48016;50.284;18.860;2022-12-18T16:07:48;59.80;;;26.00;;
62056;SDS011;48016;50.284;18.860;2022-12-18T16:10:14;70.60;;;24.90;;
62056;SDS011;48016;50.284;18.860;2022-12-18T16:12:41;69.50;;;25.80;;
62056;SDS011;48016;50.284;18.860;2022-12-18T16:15:09;65.30;;;27.10;;
62056;SDS011;48016;50.284;18.860;2022-12-18T16:17:39;86.40;;;37.80;;
62056;SDS011;48016;50.284;18.860;2022-12-18T16:20:14;101.40;;;40.10;;
62056;SDS011;48016;50.284;18.860;2022-12-18T16:22:42;105.50;;;42.90;;
62056;SDS011;48016;50.284;18.860;2022-12-18T16:25:27;99.70;;;40.10;;
62056;SDS011;48016;50.284;18.860;2022-12-18T16:27:55;99.60;;;42.70;;
62056;SDS011;48016;50.284;18.860;2022-12-18T16:30:23;94.00;;;40.30;;
62056;SDS011;48016;50.284;18.860;2022-12-18T16:32:55;94.20;;;37.80;;
62056;SDS011;48016;50.284;18.860;2022-12-18T16:35:21;98.50;;;40.00;;
62056;SDS011;48016;50.284;18.860;2022-12-18T16:40:15;98.10;;;44.20;;
62056;SDS011;48016;50.284;18.860;2022-12-18T16:45:12;120.10;;;46.80;;
62056;SDS011;48016;50.284;18.860;2022-12-18T16:47:40;112.30;;;48.00;;
62056;SDS011;48016;50.284;18.860;2022-12-18T16:50:07;110.90;;;45.70;;
62056;SDS011;48016;50.284;18.860;2022-12-18T16:52:34;118.70;;;47.30;;
62056;SDS011;48016;50.284;18.860;2022-12-18T16:55:02;113.30;;;45.10;;
62056;SDS011;48016;50.284;18.860;2022-12-18T16:57:29;112.10;;;45.20;;
62056;SDS011;48016;50.284;18.860;2022-12-18T16:59:55;107.30;;;46.40;;
62056;SDS011;48016;50.284;18.860;2022-12-18T17:02:23;117.50;;;45.80;;
62056;SDS011;48016;50.284;18.860;2022-12-18T17:04:56;110.30;;;42.70;;
62056;SDS011;48016;50.284;18.860;2022-12-18T17:07:23;104.50;;;44.40;;
62056;SDS011;48016;50.284;18.860;2022-12-18T17:09:51;96.00;;;40.70;;
62056;SDS011;48016;50.284;18.860;2022-12-18T17:14:46;98.00;;;39.60;;
62056;SDS011;48016;50.284;18.860;2022-12-18T17:17:13;90.10;;;34.70;;
62056;SDS011;48016;50.284;18.860;2022-12-18T17:19:40;91.80;;;38.10;;
62056;SDS011;48016;50.284;18.860;2022-12-18T17:22:06;95.30;;;35.20;;
62056;SDS011;48016;50.284;18.860;2022-12-18T17:24:34;81.50;;;34.70;;
62056;SDS011;48016;50.284;18.860;2022-12-18T17:27:01;88.50;;;32.50;;
62056;SDS011;48016;50.284;18.860;2022-12-18T17:29:29;84.30;;;32.90;;
62056;SDS011;48016;50.284;18.860;2022-12-18T17:31:56;79.40;;;30.00;;
62056;SDS011;48016;50.284;18.860;2022-12-18T17:34:23;83.20;;;31.40;;
62056;SDS011;48016;50.284;18.860;2022-12-18T17:36:49;70.40;;;28.70;;
62056;SDS011;48016;50.284;18.860;2022-12-18T17:39:17;72.40;;;28.20;;
62056;SDS011;48016;50.284;18.860;2022-12-18T17:41:45;80.50;;;29.90;;
62056;SDS011;48016;50.284;18.860;2022-12-18T17:44:12;87.60;;;29.50;;
62056;SDS011;48016;50.284;18.860;2022-12-18T17:46:39;66.40;;;26.00;;
62056;SDS011;48016;50.284;18.860;2022-12-18T17:49:06;68.20;;;25.80;;
62056;SDS011;48016;50.284;18.860;2022-12-18T17:51:33;70.30;;;27.40;;
62056;SDS011;48016;50.284;18.860;2022-12-18T17:53:59;66.20;;;25.40;;
62056;SDS011;48016;50.284;18.860;2022-12-18T17:56:26;70.00;;;27.10;;
62056;SDS011;48016;50.284;18.860;2022-12-18T17:58:53;52.00;;;20.20;;
62056;SDS011;48016;50.284;18.860;2022-12-18T18:01:20;57.00;;;22.80;;
62056;SDS011;48016;50.284;18.860;2022-12-18T18:03:48;59.50;;;22.20;;
62056;SDS011;48016;50.284;18.860;2022-12-18T18:06:15;66.40;;;23.40;;
62056;SDS011;48016;50.284;18.860;2022-12-18T18:08:42;51.60;;;20.80;;
62056;SDS011;48016;50.284;18.860;2022-12-18T18:11:11;68.40;;;25.00;;
62056;SDS011;48016;50.284;18.860;2022-12-18T18:13:58;68.90;;;23.40;;
62056;SDS011;48016;50.284;18.860;2022-12-18T18:16:30;49.40;;;20.70;;
62056;SDS011;48016;50.284;18.860;2022-12-18T18:19:03;60.50;;;22.80;;
62056;SDS011;48016;50.284;18.860;2022-12-18T18:21:32;60.10;;;23.30;;
62056;SDS011;48016;50.284;18.860;2022-12-18T18:24:03;62.90;;;22.00;;
62056;SDS011;48016;50.284;18.860;2022-12-18T18:26:30;58.70;;;23.70;;
62056;SDS011;48016;50.284;18.860;2022-12-18T18:28:58;56.70;;;22.70;;
62056;SDS011;48016;50.284;18.860;2022-12-18T18:31:26;59.20;;;23.30;;
62056;SDS011;48016;50.284;18.860;2022-12-18T18:33:54;63.90;;;23.20;;
62056;SDS011;48016;50.284;18.860;2022-12-18T18:36:21;66.70;;;25.60;;
62056;SDS011;48016;50.284;18.860;2022-12-18T18:38:49;67.60;;;25.80;;
62056;SDS011;48016;50.284;18.860;2022-12-18T18:41:17;66.90;;;24.60;;
62056;SDS011;48016;50.284;18.860;2022-12-18T18:43:44;71.60;;;26.90;;
62056;SDS011;48016;50.284;18.860;2022-12-18T18:46:13;68.50;;;25.70;;
62056;SDS011;48016;50.284;18.860;2022-12-18T18:48:41;54.80;;;23.20;;
62056;SDS011;48016;50.284;18.860;2022-12-18T18:51:12;63.70;;;24.10;;
62056;SDS011;48016;50.284;18.860;2022-12-18T18:53:41;70.50;;;25.50;;
62056;SDS011;48016;50.284;18.860;2022-12-18T18:56:10;70.80;;;26.80;;
62056;SDS011;48016;50.284;18.860;2022-12-18T18:58:39;70.70;;;26.60;;
62056;SDS011;48016;50.284;18.860;2022-12-18T19:01:08;72.10;;;25.30;;
62056;SDS011;48016;50.284;18.860;2022-12-18T19:03:37;70.10;;;28.10;;
62056;SDS011;48016;50.284;18.860;2022-12-18T19:06:05;70.40;;;25.50;;
62056;SDS011;48016;50.284;18.860;2022-12-18T19:08:34;64.70;;;23.00;;
62056;SDS011;48016;50.284;18.860;2022-12-18T19:11:04;72.60;;;26.80;;
62056;SDS011;48016;50.284;18.860;2022-12-18T19:13:53;79.10;;;28.70;;
62056;SDS011;48016;50.284;18.860;2022-12-18T19:16:20;61.60;;;23.60;;
62056;SDS011;48016;50.284;18.860;2022-12-18T19:18:47;71.60;;;26.90;;
62056;SDS011;48016;50.284;18.860;2022-12-18T19:21:14;65.20;;;23.80;;
62056;SDS011;48016;50.284;18.860;2022-12-18T19:23:40;61.80;;;23.00;;
62056;SDS011;48016;50.284;18.860;2022-12-18T19:26:07;68.60;;;25.20;;
62056;SDS011;48016;50.284;18.860;2022-12-18T19:28:35;67.10;;;27.00;;
62056;SDS011;48016;50.284;18.860;2022-12-18T19:31:02;62.60;;;25.60;;
62056;SDS011;48016;50.284;18.860;2022-12-18T19:33:32;66.70;;;26.20;;
62056;SDS011;48016;50.284;18.860;2022-12-18T19:38:52;69.00;;;26.90;;
62056;SDS011;48016;50.284;18.860;2022-12-18T19:41:22;61.60;;;22.80;;
62056;SDS011;48016;50.284;18.860;2022-12-18T19:43:50;63.50;;;25.60;;
62056;SDS011;48016;50.284;18.860;2022-12-18T19:46:19;58.70;;;24.40;;
62056;SDS011;48016;50.284;18.860;2022-12-18T19:48:47;58.40;;;22.30;;
62056;SDS011;48016;50.284;18.860;2022-12-18T19:51:16;67.40;;;27.00;;
62056;SDS011;48016;50.284;18.860;2022-12-18T19:53:47;62.50;;;26.40;;
62056;SDS011;48016;50.284;18.860;2022-12-18T19:56:16;59.80;;;23.40;;
62056;SDS011;48016;50.284;18.860;2022-12-18T19:58:44;57.60;;;23.60;;
62056;SDS011;48016;50.284;18.860;2022-12-18T20:01:13;62.00;;;21.60;;
62056;SDS011;48016;50.284;18.860;2022-12-18T20:03:41;61.90;;;24.70;;
62056;SDS011;48016;50.284;18.860;2022-12-18T20:06:12;62.90;;;22.50;;
62056;SDS011;48016;50.284;18.860;2022-12-18T20:08:44;56.20;;;21.20;;
62056;SDS011;48016;50.284;18.860;2022-12-18T20:11:11;57.20;;;20.10;;
62056;SDS011;48016;50.284;18.860;2022-12-18T20:13:38;64.20;;;23.80;;
62056;SDS011;48016;50.284;18.860;2022-12-18T20:16:04;48.00;;;18.40;;
62056;SDS011;48016;50.284;18.860;2022-12-18T20:18:31;58.80;;;23.00;;
62056;SDS011;48016;50.284;18.860;2022-12-18T20:20:58;63.90;;;23.10;;
62056;SDS011;48016;50.284;18.860;2022-12-18T20:23:25;59.10;;;22.70;;
62056;SDS011;48016;50.284;18.860;2022-12-18T20:25:52;63.50;;;24.90;;
62056;SDS011;48016;50.284;18.860;2022-12-18T20:30:46;56.00;;;22.40;;
62056;SDS011;48016;50.284;18.860;2022-12-18T20:33:12;66.20;;;23.40;;
62056;SDS011;48016;50.284;18.860;2022-12-18T20:35:40;75.80;;;27.50;;
62056;SDS011;48016;50.284;18.860;2022-12-18T20:38:06;71.00;;;26.80;;
62056;SDS011;48016;50.284;18.860;2022-12-18T20:40:33;60.60;;;24.20;;
62056;SDS011;48016;50.284;18.860;2022-12-18T20:43:00;63.40;;;25.60;;
62056;SDS011;48016;50.284;18.860;2022-12-18T20:45:28;66.90;;;25.60;;
62056;SDS011;48016;50.284;18.860;2022-12-18T20:47:54;70.50;;;25.60;;
62056;SDS011;48016;50.284;18.860;2022-12-18T20:50:21;69.50;;;28.40;;
62056;SDS011;48016;50.284;18.860;2022-12-18T20:52:48;76.40;;;29.20;;
62056;SDS011;48016;50.284;18.860;2022-12-18T20:55:14;64.40;;;27.00;;
62056;SDS011;48016;50.284;18.860;2022-12-18T20:57:41;84.00;;;28.70;;
62056;SDS011;48016;50.284;18.860;2022-12-18T21:00:08;55.10;;;21.50;;
62056;SDS011;48016;50.284;18.860;2022-12-18T21:02:36;67.80;;;25.20;;
62056;SDS011;48016;50.284;18.860;2022-12-18T21:05:03;74.90;;;26.00;;
62056;SDS011;48016;50.284;18.860;2022-12-18T21:07:29;72.20;;;29.40;;
62056;SDS011;48016;50.284;18.860;2022-12-18T21:09:56;45.90;;;18.20;;
62056;SDS011;48016;50.284;18.860;2022-12-18T21:12:23;72.10;;;27.40;;
62056;SDS011;48016;50.284;18.860;2022-12-18T21:15:11;40.30;;;12.80;;
62056;SDS011;48016;50.284;18.860;2022-12-18T21:17:38;74.30;;;28.80;;
62056;SDS011;48016;50.284;18.860;2022-12-18T21:20:05;63.00;;;27.10;;
62056;SDS011;48016;50.284;18.860;2022-12-18T21:22:34;60.50;;;21.50;;
62056;SDS011;48016;50.284;18.860;2022-12-18T21:25:02;67.80;;;26.50;;
62056;SDS011;48016;50.284;18.860;2022-12-18T21:29:55;60.70;;;21.20;;
62056;SDS011;48016;50.284;18.860;2022-12-18T21:32:22;58.20;;;21.90;;
62056;SDS011;48016;50.284;18.860;2022-12-18T21:34:49;51.80;;;19.40;;
62056;SDS011;48016;50.284;18.860;2022-12-18T21:37:17;58.50;;;22.20;;
62056;SDS011;48016;50.284;18.860;2022-12-18T21:39:45;69.60;;;23.50;;
62056;SDS011;48016;50.284;18.860;2022-12-18T21:42:12;65.40;;;25.90;;
62056;SDS011;48016;50.284;18.860;2022-12-18T21:44:57;67.10;;;24.80;;
62056;SDS011;48016;50.284;18.860;2022-12-18T21:47:23;77.00;;;28.10;;
62056;SDS011;48016;50.284;18.860;2022-12-18T21:49:50;72.50;;;24.90;;
62056;SDS011;48016;50.284;18.860;2022-12-18T21:52:18;44.80;;;16.80;;
62056;SDS011;48016;50.284;18.860;2022-12-18T21:54:45;59.70;;;21.30;;
62056;SDS011;48016;50.284;18.860;2022-12-18T21:57:12;70.00;;;26.10;;
62056;SDS011;48016;50.284;18.860;2022-12-18T21:59:40;46.40;;;17.10;;
62056;SDS011;48016;50.284;18.860;2022-12-18T22:02:12;57.20;;;20.80;;
62056;SDS011;48016;50.284;18.860;2022-12-18T22:04:41;63.20;;;22.70;;
62056;SDS011;48016;50.284;18.860;2022-12-18T22:07:09;48.50;;;19.10;;
62056;SDS011;48016;50.284;18.860;2022-12-18T22:09:36;69.90;;;25.90;;
62056;SDS011;48016;50.284;18.860;2022-12-18T22:12:03;51.40;;;19.90;;
62056;SDS011;48016;50.284;18.860;2022-12-18T22:14:30;60.80;;;20.00;;
62056;SDS011;48016;50.284;18.860;2022-12-18T22:16:56;62.20;;;22.70;;
62056;SDS011;48016;50.284;18.860;2022-12-18T22:19:23;52.50;;;19.70;;
62056;SDS011;48016;50.284;18.860;2022-12-18T22:21:50;54.60;;;21.10;;
62056;SDS011;48016;50.284;18.860;2022-12-18T22:24:19;61.60;;;25.10;;
62056;SDS011;48016;50.284;18.860;2022-12-18T22:26:47;55.00;;;23.20;;
62056;SDS011;48016;50.284;18.860;2022-12-18T22:29:17;63.90;;;20.80;;
62056;SDS011;48016;50.284;18.860;2022-12-18T22:32:04;52.30;;;20.10;;
62056;SDS011;48016;50.284;18.860;2022-12-18T22:34:32;65.60;;;23.10;;
62056;SDS011;48016;50.284;18.860;2022-12-18T22:36:59;60.60;;;24.00;;
62056;SDS011;48016;50.284;18.860;2022-12-18T22:39:27;63.60;;;23.00;;
62056;SDS011;48016;50.284;18.860;2022-12-18T22:41:55;51.00;;;21.20;;
62056;SDS011;48016;50.284;18.860;2022-12-18T22:44:22;57.10;;;22.00;;
62056;SDS011;48016;50.284;18.860;2022-12-18T22:46:49;63.50;;;24.00;;
62056;SDS011;48016;50.284;18.860;2022-12-18T22:49:19;48.20;;;16.90;;
62056;SDS011;48016;50.284;18.860;2022-12-18T22:51:49;58.50;;;21.40;;
62056;SDS011;48016;50.284;18.860;2022-12-18T22:54:19;47.20;;;18.90;;
62056;SDS011;48016;50.284;18.860;2022-12-18T22:56:47;59.80;;;19.80;;
62056;SDS011;48016;50.284;18.860;2022-12-18T22:59:15;52.50;;;19.50;;
62056;SDS011;48016;50.284;18.860;2022-12-18T23:01:48;60.20;;;21.50;;
62056;SDS011;48016;50.284;18.860;2022-12-18T23:04:15;79.50;;;25.90;;
62056;SDS011;48016;50.284;18.860;2022-12-18T23:06:43;49.60;;;17.90;;
62056;SDS011;48016;50.284;18.860;2022-12-18T23:09:18;54.80;;;21.20;;
62056;SDS011;48016;50.284;18.860;2022-12-18T23:11:46;51.00;;;18.90;;
62056;SDS011;48016;50.284;18.860;2022-12-18T23:14:14;58.80;;;22.10;;
62056;SDS011;48016;50.284;18.860;2022-12-18T23:16:40;71.70;;;25.20;;
62056;SDS011;48016;50.284;18.860;2022-12-18T23:19:07;54.50;;;20.70;;
62056;SDS011;48016;50.284;18.860;2022-12-18T23:21:34;52.80;;;21.50;;
62056;SDS011;48016;50.284;18.860;2022-12-18T23:24:01;57.40;;;21.70;;
62056;SDS011;48016;50.284;18.860;2022-12-18T23:26:27;58.60;;;21.90;;
62056;SDS011;48016;50.284;18.860;2022-12-18T23:28:54;43.50;;;17.10;;
62056;SDS011;48016;50.284;18.860;2022-12-18T23:31:25;59.10;;;21.00;;
62056;SDS011;48016;50.284;18.860;2022-12-18T23:33:55;62.10;;;23.10;;
62056;SDS011;48016;50.284;18.860;2022-12-18T23:36:23;63.50;;;23.80;;
62056;SDS011;48016;50.284;18.860;2022-12-18T23:38:52;59.80;;;22.00;;
62056;SDS011;48016;50.284;18.860;2022-12-18T23:41:21;62.30;;;20.60;;
62056;SDS011;48016;50.284;18.860;2022-12-18T23:43:50;55.80;;;21.50;;
62056;SDS011;48016;50.284;18.860;2022-12-18T23:48:43;57.80;;;21.90;;
62056;SDS011;48016;50.284;18.860;2022-12-18T23:51:11;61.80;;;24.40;;
62056;SDS011;48016;50.284;18.860;2022-12-18T23:53:39;49.00;;;18.50;;
62056;SDS011;48016;50.284;18.860;2022-12-18T23:56:07;48.10;;;17.30;;
62056;SDS011;48016;50.284;18.860;2022-12-18T23:58:35;57.00;;;20.00;;
